Aviation Digital Data Service (ADDS)

Output produced by TAFs form (1520 UTC 24 July 2014)
found at http://aviationweather.gov/adds/tafs/
 
KABQ 241139Z 2412/2512 01006KT P6SM SCT130 
     FM241900 21011KT P6SM FEW100 
     FM250200 17008KT P6SM SCT120